Map

Track Data

SID SEASON NUMBER BASIN SUBBASIN NAME ISO_TIME NATURE LAT LON WMO_WIND WMO_PRES WMO_AGENCY TRACK_TYPE DIST2LAND LANDFALL IFLAG USA_AGENCY USA_ATCF_ID USA_LAT USA_LON USA_RECORD USA_STATUS USA_WIND USA_PRES USA_SSHS USA_R34_NE USA_R34_SE USA_R34_SW USA_R34_NW USA_R50_NE USA_R50_SE USA_R50_SW USA_R50_NW USA_R64_NE USA_R64_SE USA_R64_SW USA_R64_NW USA_POCI USA_ROCI USA_RMW USA_EYE TOKYO_LAT TOKYO_LON TOKYO_GRADE TOKYO_WIND TOKYO_PRES TOKYO_R50_DIR TOKYO_R50_LONG TOKYO_R50_SHORT TOKYO_R30_DIR TOKYO_R30_LONG TOKYO_R30_SHORT TOKYO_LAND CMA_LAT CMA_LON CMA_CAT CMA_WIND CMA_PRES HKO_LAT HKO_LON HKO_CAT HKO_WIND HKO_PRES NEWDELHI_LAT NEWDELHI_LON NEWDELHI_GRADE NEWDELHI_WIND NEWDELHI_PRES NEWDELHI_CI NEWDELHI_DP NEWDELHI_POCI REUNION_LAT REUNION_LON REUNION_TYPE REUNION_WIND REUNION_PRES REUNION_TNUM REUNION_CI REUNION_RMW REUNION_R34_NE REUNION_R34_SE REUNION_R34_SW REUNION_R34_NW REUNION_R50_NE REUNION_R50_SE REUNION_R50_SW REUNION_R50_NW REUNION_R64_NE REUNION_R64_SE REUNION_R64_SW REUNION_R64_NW BOM_LAT BOM_LON BOM_TYPE BOM_WIND BOM_PRES BOM_TNUM BOM_CI BOM_RMW BOM_R34_NE BOM_R34_SE BOM_R34_SW BOM_R34_NW BOM_R50_NE BOM_R50_SE BOM_R50_SW BOM_R50_NW BOM_R64_NE BOM_R64_SE BOM_R64_SW BOM_R64_NW BOM_ROCI BOM_POCI BOM_EYE BOM_POS_METHOD BOM_PRES_METHOD NADI_LAT NADI_LON NADI_CAT NADI_WIND NADI_PRES WELLINGTON_LAT WELLINGTON_LON WELLINGTON_WIND WELLINGTON_PRES DS824_LAT DS824_LON DS824_STAGE DS824_WIND DS824_PRES TD9636_LAT TD9636_LON TD9636_STAGE TD9636_WIND TD9636_PRES TD9635_LAT TD9635_LON TD9635_WIND TD9635_PRES TD9635_ROCI NEUMANN_LAT NEUMANN_LON NEUMANN_CLASS NEUMANN_WIND NEUMANN_PRES MLC_LAT MLC_LON MLC_CLASS MLC_WIND MLC_PRES USA_GUST BOM_GUST BOM_GUST_PER REUNION_GUST REUNION_GUST_PER USA_SEAHGT USA_SEARAD_NE USA_SEARAD_SE USA_SEARAD_SW USA_SEARAD_NW STORM_SPEED STORM_DIR
1928043S18118 1928 4 SI WA NOT_NAMED 1928-02-11 23:00:00 NR -18.0000 117.900 main 266 246 __________O___ -1 -18.0000 117.900 7 12 0
1928043S18118 1928 4 SI WA NOT_NAMED 1928-02-12 00:00:00 NR -18.1978 117.879 main 246 222 __________P___ -1 -18.1978 117.879 7 13 161
1928043S18118 1928 4 SI WA NOT_NAMED 1928-02-12 01:00:00 NR -18.3968 118.043 bom main 222 188 ______O___P___ -1 -18.4000 118.600 -18.3958 117.857 7 12 163
1928043S18118 1928 4 SI WA NOT_NAMED 1928-02-12 03:00:00 NR -18.7538 118.057 main 178 134 ______P___P___ -1 -18.6770 118.539 -18.7923 117.816 7 10 178
1928043S18118 1928 4 SI WA NOT_NAMED 1928-02-12 06:00:00 NR -19.2624 118.055 main 123 78 ______P___P___ -1 -19.0924 118.447 -19.3899 117.761 7 10 181
1928043S18118 1928 4 SI WA NOT_NAMED 1928-02-12 09:00:00 NR -19.7506 118.037 main 67 35 ______P___P___ -1 -19.5078 118.355 -19.9933 117.718 7 10 184
1928043S18118 1928 4 SI WA NOT_NAMED 1928-02-12 11:00:00 NR -20.0924 117.997 main 35 24 ______P___O___ -1 -19.7847 118.293 -20.4000 117.700 7 10 186
1928043S18118 1928 4 SI WA NOT_NAMED 1928-02-12 12:00:00 NR -20.2640 117.978 main 15 0 ______P___P___ -1 -19.9232 118.262 -20.6048 117.695 7 10 185
1928043S18118 1928 4 SI WA NOT_NAMED 1928-02-12 14:00:00 NR -20.6065 117.946 bom main 0 0 ______O___P___ -1 -20.2000 118.200 -21.0130 117.691 7 10 186
1928043S18118 1928 4 SI WA NOT_NAMED 1928-02-12 15:00:00 NR -20.7571 117.924 main 0 0 ______P___P___ -1 -20.3001 118.155 -21.2142 117.693 7 9 187
1928043S18118 1928 4 SI WA NOT_NAMED 1928-02-12 18:00:00 NR -21.1961 117.867 main 0 0 ______P___P___ -1 -20.6002 118.019 -21.7920 117.714 7 9 187
1928043S18118 1928 4 SI WA NOT_NAMED 1928-02-12 21:00:00 NR -21.6036 117.820 main 0 0 ______P___P___ -1 -20.9002 117.883 -22.3070 117.758 7 9 185
1928043S18118 1928 4 SI WA NOT_NAMED 1928-02-12 23:00:00 NR -21.9572 117.796 main 0 0 ______P___O___ -1 -21.1001 117.791 -22.6000 117.800 7 12 182
1928043S18118 1928 4 SI WA NOT_NAMED 1928-02-13 00:00:00 NR -22.2124 117.796 main 0 0 ______P___P___ -1 -21.2001 117.746 -22.7186 117.821 7 17 0
1928043S18118 1928 4 SI WA NOT_NAMED 1928-02-13 01:00:00 NR -22.5197 117.816 bom main 0 0 ______O___P___ -1 -21.3000 117.700 -22.8246 117.844 7 16 173
1928043S18118 1928 4 SI WA NOT_NAMED 1928-02-13 03:00:00 NR -23.0063 117.899 main 0 0 __________P___ -1 -23.0063 117.899 7 9 167
1928043S18118 1928 4 SI WA NOT_NAMED 1928-02-13 06:00:00 NR -23.2308 117.998 main 0 0 __________P___ -1 -23.2308 117.998 7 5 156
1928043S18118 1928 4 SI WA NOT_NAMED 1928-02-13 09:00:00 NR -23.4419 118.114 main 0 0 __________P___ -1 -23.4419 118.114 7 5 153
1928043S18118 1928 4 SI WA NOT_NAMED 1928-02-13 11:00:00 NR -23.6000 118.200 main 0 0 __________O___ -1 -23.6000 118.200 7 6 155
1928043S18118 1928 4 SI WA NOT_NAMED 1928-02-13 12:00:00 NR -23.6894 118.245 main 0 0 __________P___ -1 -23.6894 118.245 7 7 157
1928043S18118 1928 4 SI WA NOT_NAMED 1928-02-13 15:00:00 NR -23.9977 118.387 main 0 0 __________P___ -1 -23.9977 118.387 7 7 158
1928043S18118 1928 4 SI WA NOT_NAMED 1928-02-13 18:00:00 NR -24.3526 118.537 main 0 0 __________P___ -1 -24.3526 118.537 7 8 159
1928043S18118 1928 4 SI WA NOT_NAMED 1928-02-13 21:00:00 NR -24.7366 118.694 main 0 0 __________P___ -1 -24.7366 118.694 7 8 160
1928043S18118 1928 4 SI WA NOT_NAMED 1928-02-13 23:00:00 NR -25.0000 118.800 main 0 __________O___ -1 -25.0000 118.800 7 8 160

About IBTrACS Database

This database is a web-friendly format of International Best Track Archive for Climate Stewardship (IBTrACS), a global best track data archive curated by NOAA dating back to 1842.

Updated: 2021-10-25